Botsford, Connecticut
Current Conditions -  °F | °C
As of 5:55 AM on Saturday 20 Dec 2014 (Local Time) from KOXC Reporting Station
Clear Clear  
Wind Chill: 25°   Ceiling: Unl
Heat Index: 25°   Visibility: 10mi
Dew Point: 14°   Wind: 3mph
Humidity: 64%   Direction: 340°NNW
Pressure: 30.22"   Gusts: NA
Location:  41.37°N, 73.26°W
Report Text: KOXC 201055Z 34003KT 10SM CLR M04/M10 A3022 RMK AO1
Loading
Personal Weather Stations






























Interactive Weather Map New forecast layout! Learn more

10-Day Weather Forecast

Advertisements
Track Severe Weather on mobile